Terminal Aerodrome Forecast
Issued by NWS

Home | Current Version | Previous Version | Text Only | Print | Product List | Glossary On
Versions: 1 2 3 4 5 6 7 8 9 10 11 12 13 14 15 16 17 18 19 20 21 22 23 24 25 26 27 28 29 30 31 32 33 34 35 36 37 38 39 40 41 42 43 44 45 46 47 48 49 50
000
FTAK31 PANC 230537
TAFAHO
TAF
PAHO 230537Z 2306/2406 03007KT P6SM SCT015
     FM231800 06011KT P6SM VCSH SCT030 OVC050
     FM232100 06015KT 3SM -SN OVC025
     FM240400 08010KT P6SM VCSH SCT025 OVC040=

USA.gov is the U.S. government's official web portal to all federal, state and local government web resources and services.